createdAt,value
2017-03-12T00:00:13.022Z,0
2017-03-12T00:01:13.006Z,0
2017-03-12T00:02:12.605Z,0
2017-03-12T00:03:13.014Z,0
2017-03-12T00:04:12.546Z,0
2017-03-12T00:05:12.545Z,0
2017-03-12T00:06:12.922Z,0
2017-03-12T00:07:12.891Z,0
2017-03-12T00:08:12.076Z,0
2017-03-12T00:09:12.887Z,0
2017-03-12T00:10:12.034Z,0
2017-03-12T00:11:12.420Z,0
2017-03-12T00:12:12.824Z,0
2017-03-12T00:13:12.794Z,0
2017-03-12T00:14:12.779Z,0
2017-03-12T00:15:12.748Z,0
2017-03-12T00:16:12.745Z,0
2017-03-12T00:17:12.735Z,0
2017-03-12T00:18:12.300Z,0
2017-03-12T00:19:12.672Z,0
2017-03-12T00:20:12.688Z,0
2017-03-12T00:21:12.649Z,0
2017-03-12T00:22:12.251Z,0
2017-03-12T00:23:12.614Z,0
2017-03-12T00:24:12.195Z,0
2017-03-12T00:25:12.569Z,0
2017-03-12T00:26:12.566Z,0
2017-03-12T00:27:12.531Z,0
2017-03-12T00:28:12.506Z,0
2017-03-12T00:29:12.493Z,0
2017-03-12T00:30:12.459Z,0
2017-03-12T00:31:12.454Z,0
2017-03-12T00:32:12.026Z,0
2017-03-12T00:33:12.428Z,0
2017-03-12T00:34:12.398Z,0
2017-03-12T00:35:12.408Z,0
2017-03-12T00:36:12.392Z,0
2017-03-12T00:37:12.369Z,0
2017-03-12T00:38:11.937Z,0
2017-03-12T00:39:12.326Z,0
2017-03-12T00:40:12.320Z,0
2017-03-12T00:41:12.289Z,0
2017-03-12T00:42:12.269Z,0
2017-03-12T00:43:12.313Z,0
2017-03-12T00:44:12.245Z,0
2017-03-12T00:45:11.396Z,0
2017-03-12T00:46:12.173Z,0
2017-03-12T00:47:11.749Z,0
2017-03-12T00:48:11.753Z,0
2017-03-12T00:49:12.108Z,0
2017-03-12T00:50:12.101Z,0
2017-03-12T00:51:12.089Z,0
2017-03-12T00:52:11.665Z,0
2017-03-12T00:53:11.648Z,0
2017-03-12T00:54:11.648Z,0
2017-03-12T00:55:12.050Z,0
2017-03-12T00:56:12.003Z,0
2017-03-12T00:57:11.995Z,0
2017-03-12T00:58:11.569Z,0
2017-03-12T00:59:11.961Z,0
2017-03-12T01:00:11.921Z,0
2017-03-12T01:01:11.906Z,0
2017-03-12T01:02:11.089Z,0
2017-03-12T01:03:11.888Z,0
2017-03-12T01:04:12.115Z,0
2017-03-12T01:05:11.505Z,0
2017-03-12T01:06:11.468Z,0
2017-03-12T01:07:11.467Z,0
2017-03-12T01:08:11.975Z,0
2017-03-12T01:09:11.374Z,0
2017-03-12T01:10:11.794Z,0
2017-03-12T01:11:11.703Z,0
2017-03-12T01:12:11.357Z,0
2017-03-12T01:13:11.684Z,0
2017-03-12T01:14:11.258Z,0
2017-03-12T01:15:11.641Z,0
2017-03-12T01:16:11.639Z,0
2017-03-12T01:17:11.199Z,0
2017-03-12T01:18:11.574Z,0
2017-03-12T01:19:10.795Z,0
2017-03-12T01:20:11.169Z,0
2017-03-12T01:21:11.514Z,0
2017-03-12T01:22:11.123Z,0
2017-03-12T01:23:11.093Z,0
2017-03-12T01:24:11.469Z,0
2017-03-12T01:25:11.450Z,0
2017-03-12T01:26:11.458Z,0
2017-03-12T01:27:11.019Z,0
2017-03-12T01:28:11.397Z,0
2017-03-12T01:29:11.383Z,0
2017-03-12T01:30:11.370Z,0
2017-03-12T01:31:10.958Z,0
2017-03-12T01:32:11.328Z,0
2017-03-12T01:33:11.309Z,0
2017-03-12T01:34:11.278Z,0
2017-03-12T01:35:10.475Z,0
2017-03-12T01:36:10.446Z,0
2017-03-12T01:37:10.831Z,0
2017-03-12T01:38:11.273Z,0
2017-03-12T01:39:10.800Z,0
2017-03-12T01:40:10.799Z,0
2017-03-12T01:41:11.203Z,0
2017-03-12T01:42:10.735Z,0
2017-03-12T01:43:10.712Z,0
2017-03-12T01:44:11.144Z,0
2017-03-12T01:45:10.679Z,0
2017-03-12T01:46:11.118Z,0
2017-03-12T01:47:10.660Z,0
2017-03-12T01:48:11.027Z,0
2017-03-12T01:49:11.019Z,0
2017-03-12T01:50:10.574Z,0
2017-03-12T01:51:10.969Z,0
2017-03-12T01:52:10.950Z,0
2017-03-12T01:53:10.955Z,0
2017-03-12T01:54:10.906Z,0
2017-03-12T01:55:10.901Z,0
2017-03-12T01:56:10.097Z,0
2017-03-12T01:57:10.056Z,0
2017-03-12T01:58:10.035Z,0
2017-03-12T01:59:11.064Z,0
2017-03-12T02:00:10.388Z,0
2017-03-12T02:01:10.767Z,0
2017-03-12T02:02:10.756Z,0
2017-03-12T02:03:10.739Z,0
2017-03-12T02:04:10.727Z,0
2017-03-12T02:05:10.290Z,0
2017-03-12T02:06:10.289Z,0
2017-03-12T02:07:10.275Z,0
2017-03-12T02:08:10.257Z,0
2017-03-12T02:09:10.633Z,0
2017-03-12T02:10:10.241Z,0
2017-03-12T02:11:10.580Z,0
2017-03-12T02:12:10.572Z,0
2017-03-12T02:13:10.565Z,0
2017-03-12T02:14:10.538Z,0
2017-03-12T02:15:10.534Z,0
2017-03-12T02:16:09.708Z,0
2017-03-12T02:17:10.471Z,0
2017-03-12T02:18:10.079Z,0
2017-03-12T02:19:10.453Z,0
2017-03-12T02:20:10.418Z,0
2017-03-12T02:21:10.022Z,0
2017-03-12T02:22:09.997Z,0
2017-03-12T02:23:10.372Z,0
2017-03-12T02:24:10.369Z,0
2017-03-12T02:25:10.341Z,0
2017-03-12T02:26:10.303Z,0
2017-03-12T02:27:10.306Z,0
2017-03-12T02:28:10.281Z,0
2017-03-12T02:29:10.260Z,0
2017-03-12T02:30:10.083Z,0
2017-03-12T02:31:10.219Z,0
2017-03-12T02:32:10.194Z,0
2017-03-12T02:33:10.231Z,0
2017-03-12T02:34:10.164Z,0
2017-03-12T02:35:10.149Z,0
2017-03-12T02:36:10.152Z,0
2017-03-12T02:37:09.722Z,0
2017-03-12T02:38:10.114Z,0
2017-03-12T02:39:09.672Z,0
2017-03-12T02:40:10.075Z,0
2017-03-12T02:41:10.027Z,0
2017-03-12T02:42:10.023Z,0
2017-03-12T02:43:09.237Z,0
2017-03-12T02:44:10.034Z,0
2017-03-12T02:45:09.968Z,0
2017-03-12T02:46:09.930Z,0
2017-03-12T02:47:09.934Z,0
2017-03-12T02:48:09.898Z,0
2017-03-12T02:49:09.866Z,0
2017-03-12T02:50:09.862Z,0
2017-03-12T02:51:09.856Z,0
2017-03-12T02:52:09.829Z,0
2017-03-12T02:53:09.805Z,0
2017-03-12T02:54:09.779Z,0
2017-03-12T02:55:09.762Z,0
2017-03-12T02:56:09.367Z,0
2017-03-12T02:57:09.751Z,0
2017-03-12T02:58:09.326Z,0
2017-03-12T02:59:09.701Z,0
2017-03-12T03:00:09.685Z,0
2017-03-12T03:01:09.655Z,0
2017-03-12T03:02:09.616Z,0
2017-03-12T03:03:09.614Z,0
2017-03-12T03:04:09.620Z,0
2017-03-12T03:05:09.577Z,0
2017-03-12T03:06:09.581Z,0
2017-03-12T03:07:09.533Z,0
2017-03-12T03:08:09.704Z,0
2017-03-12T03:09:09.495Z,0
2017-03-12T03:10:09.476Z,0
2017-03-12T03:11:09.504Z,0
2017-03-12T03:12:09.475Z,0
2017-03-12T03:13:08.682Z,0
2017-03-12T03:14:09.085Z,0
2017-03-12T03:15:08.982Z,0
2017-03-12T03:16:09.004Z,0
2017-03-12T03:17:09.372Z,0
2017-03-12T03:18:09.316Z,0
2017-03-12T03:19:09.312Z,0
2017-03-12T03:20:09.326Z,0
2017-03-12T03:21:08.868Z,0
2017-03-12T03:22:09.269Z,0
2017-03-12T03:23:09.230Z,0
2017-03-12T03:24:09.213Z,0
2017-03-12T03:25:09.206Z,0
2017-03-12T03:26:09.164Z,0
2017-03-12T03:27:09.162Z,0
2017-03-12T03:28:09.139Z,0
2017-03-12T03:29:09.100Z,0
2017-03-12T03:30:09.093Z,0
2017-03-12T03:31:08.677Z,0
2017-03-12T03:32:09.049Z,0
2017-03-12T03:33:09.028Z,0
2017-03-12T03:34:08.603Z,0
2017-03-12T03:35:09.000Z,0
2017-03-12T03:36:08.986Z,0
2017-03-12T03:37:08.954Z,0
2017-03-12T03:38:08.920Z,0
2017-03-12T03:39:08.917Z,0
2017-03-12T03:40:08.516Z,0
2017-03-12T03:41:08.923Z,0
2017-03-12T03:42:08.851Z,0
2017-03-12T03:43:08.864Z,0
2017-03-12T03:44:08.819Z,0
2017-03-12T03:45:08.801Z,0
2017-03-12T03:46:08.781Z,0
2017-03-12T03:47:08.782Z,0
2017-03-12T03:48:07.960Z,0
2017-03-12T03:49:08.708Z,0
2017-03-12T03:50:08.340Z,0
2017-03-12T03:51:08.336Z,0
2017-03-12T03:52:08.666Z,0
2017-03-12T03:53:08.676Z,0
2017-03-12T03:54:08.635Z,0
2017-03-12T03:55:08.239Z,0
2017-03-12T03:56:07.816Z,0
2017-03-12T03:57:08.581Z,0
2017-03-12T03:58:08.549Z,0
2017-03-12T03:59:08.535Z,0
2017-03-12T04:00:08.508Z,0
2017-03-12T04:01:08.491Z,0
2017-03-12T04:02:08.474Z,0
2017-03-12T04:03:08.439Z,0
2017-03-12T04:04:08.419Z,0
2017-03-12T04:05:08.012Z,0
2017-03-12T04:06:08.384Z,0
2017-03-12T04:07:08.391Z,0
2017-03-12T04:08:08.352Z,0
2017-03-12T04:09:08.335Z,0
2017-03-12T04:10:07.961Z,0
2017-03-12T04:11:07.914Z,0
2017-03-12T04:12:07.889Z,0
2017-03-12T04:13:08.241Z,0
2017-03-12T04:14:07.836Z,0
2017-03-12T04:15:07.797Z,0
2017-03-12T04:16:07.384Z,0
2017-03-12T04:17:08.168Z,0
2017-03-12T04:18:07.742Z,0
2017-03-12T04:19:08.279Z,0
2017-03-12T04:20:07.758Z,0
2017-03-12T04:21:07.321Z,0
2017-03-12T04:22:07.746Z,0
2017-03-12T04:23:08.052Z,0
2017-03-12T04:24:08.028Z,0
2017-03-12T04:25:07.638Z,0
2017-03-12T04:26:07.996Z,0
2017-03-12T04:27:07.987Z,0
2017-03-12T04:28:07.965Z,0
2017-03-12T04:29:07.917Z,0
2017-03-12T04:30:07.524Z,0
2017-03-12T04:31:07.888Z,0
2017-03-12T04:32:07.872Z,0
2017-03-12T04:33:07.849Z,0
2017-03-12T04:34:07.827Z,0
2017-03-12T04:35:07.421Z,0
2017-03-12T04:36:07.801Z,0
2017-03-12T04:37:07.763Z,0
2017-03-12T04:38:07.758Z,0
2017-03-12T04:39:07.733Z,0
2017-03-12T04:40:07.315Z,0
2017-03-12T04:41:07.692Z,0
2017-03-12T04:42:07.750Z,0
2017-03-12T04:43:07.659Z,0
2017-03-12T04:44:07.629Z,0
2017-03-12T04:45:07.602Z,0
2017-03-12T04:46:07.602Z,0
2017-03-12T04:47:07.161Z,0
2017-03-12T04:48:07.166Z,0
2017-03-12T04:49:07.539Z,0
2017-03-12T04:50:07.128Z,0
2017-03-12T04:51:07.146Z,0
2017-03-12T04:52:07.087Z,0
2017-03-12T04:53:07.468Z,0
2017-03-12T04:54:07.048Z,0
2017-03-12T04:55:07.401Z,0
2017-03-12T04:56:07.394Z,0
2017-03-12T04:57:07.365Z,0
2017-03-12T04:58:07.332Z,0
2017-03-12T04:59:07.327Z,0
2017-03-12T05:00:07.310Z,0
2017-03-12T05:01:07.292Z,0
2017-03-12T05:02:07.273Z,0
2017-03-12T05:03:07.324Z,0
2017-03-12T05:04:07.222Z,0
2017-03-12T05:05:07.231Z,0
2017-03-12T05:06:07.202Z,0
2017-03-12T05:07:07.175Z,0
2017-03-12T05:08:06.941Z,0
2017-03-12T05:09:07.120Z,0
2017-03-12T05:10:07.109Z,0
2017-03-12T05:11:07.110Z,0
2017-03-12T05:12:07.069Z,0
2017-03-12T05:13:07.049Z,0
2017-03-12T05:14:07.044Z,0
2017-03-12T05:15:06.990Z,0
2017-03-12T05:16:06.974Z,0
2017-03-12T05:17:06.974Z,0
2017-03-12T05:18:06.545Z,0
2017-03-12T05:19:06.922Z,0
2017-03-12T05:20:06.889Z,0
2017-03-12T05:21:06.872Z,0
2017-03-12T05:22:06.847Z,0
2017-03-12T05:23:06.440Z,0
2017-03-12T05:24:06.833Z,0
2017-03-12T05:25:06.811Z,0
2017-03-12T05:26:06.816Z,0
2017-03-12T05:27:06.742Z,0
2017-03-12T05:28:06.781Z,0
2017-03-12T05:29:06.733Z,0
2017-03-12T05:30:06.302Z,0
2017-03-12T05:31:06.687Z,0
2017-03-12T05:32:06.293Z,0
2017-03-12T05:33:06.636Z,0
2017-03-12T05:34:06.227Z,0
2017-03-12T05:35:06.598Z,0
2017-03-12T05:36:06.603Z,0
2017-03-12T05:37:06.163Z,0
2017-03-12T05:38:06.553Z,0
2017-03-12T05:39:06.523Z,0
2017-03-12T05:40:06.536Z,0
2017-03-12T05:41:06.134Z,0
2017-03-12T05:42:06.458Z,0
2017-03-12T05:43:06.418Z,0
2017-03-12T05:44:06.417Z,0
2017-03-12T05:45:06.383Z,0
2017-03-12T05:46:06.395Z,0
2017-03-12T05:47:06.344Z,0
2017-03-12T05:48:06.331Z,0
2017-03-12T05:49:06.317Z,5
2017-03-12T05:50:06.343Z,5
2017-03-12T05:51:06.269Z,5
2017-03-12T05:52:06.258Z,5
2017-03-12T05:53:06.216Z,5
2017-03-12T05:54:06.230Z,5
2017-03-12T05:55:06.206Z,5
2017-03-12T05:56:06.226Z,5
2017-03-12T05:57:06.142Z,10
2017-03-12T05:58:06.205Z,10
2017-03-12T05:59:06.154Z,10
2017-03-12T06:00:06.127Z,10
2017-03-12T06:01:06.067Z,10
2017-03-12T06:02:05.651Z,10
2017-03-12T06:03:06.013Z,15
2017-03-12T06:04:06.062Z,15
2017-03-12T06:05:05.227Z,15
2017-03-12T06:06:05.969Z,15
2017-03-12T06:07:05.961Z,15
2017-03-12T06:08:05.923Z,20
2017-03-12T06:09:05.919Z,20
2017-03-12T06:10:05.880Z,20
2017-03-12T06:11:05.866Z,20
2017-03-12T06:12:05.845Z,25
2017-03-12T06:13:05.822Z,25
2017-03-12T06:14:05.436Z,25
2017-03-12T06:15:05.783Z,25
2017-03-12T06:16:05.372Z,25
2017-03-12T06:17:05.776Z,30
2017-03-12T06:18:05.335Z,30
2017-03-12T06:19:05.723Z,30
2017-03-12T06:20:05.677Z,30
2017-03-12T06:21:05.651Z,35
2017-03-12T06:22:05.260Z,35
2017-03-12T06:23:05.222Z,35
2017-03-12T06:24:05.597Z,35
2017-03-12T06:25:05.191Z,35
2017-03-12T06:26:05.164Z,40
2017-03-12T06:27:05.549Z,40
2017-03-12T06:28:05.527Z,40
2017-03-12T06:29:05.138Z,40
2017-03-12T06:30:05.479Z,40
2017-03-12T06:31:05.514Z,45
2017-03-12T06:32:05.476Z,45
2017-03-12T06:33:05.418Z,45
2017-03-12T06:34:05.393Z,45
2017-03-12T06:35:05.388Z,45
2017-03-12T06:36:05.349Z,50
2017-03-12T06:37:04.946Z,50
2017-03-12T06:38:05.313Z,50
2017-03-12T06:39:05.304Z,50
2017-03-12T06:40:05.263Z,55
2017-03-12T06:41:05.253Z,55
2017-03-12T06:42:04.844Z,55
2017-03-12T06:43:05.226Z,55
2017-03-12T06:44:05.202Z,60
2017-03-12T06:45:05.170Z,60
2017-03-12T06:46:04.760Z,60
2017-03-12T06:47:05.122Z,60
2017-03-12T06:48:05.108Z,60
2017-03-12T06:49:05.095Z,60
2017-03-12T06:50:05.080Z,60
2017-03-12T06:51:04.693Z,60
2017-03-12T06:52:05.061Z,65
2017-03-12T06:53:05.020Z,65
2017-03-12T06:54:04.594Z,65
2017-03-12T06:55:04.989Z,65
2017-03-12T06:56:04.968Z,65
2017-03-12T06:57:04.944Z,70
2017-03-12T06:58:04.920Z,70
2017-03-12T06:59:04.895Z,70
2017-03-12T07:00:04.875Z,70
2017-03-12T07:01:04.880Z,75
2017-03-12T07:02:04.834Z,75
2017-03-12T07:03:04.832Z,75
2017-03-12T07:04:04.806Z,75
2017-03-12T07:05:04.767Z,75
2017-03-12T07:06:04.758Z,80
2017-03-12T07:07:04.339Z,80
2017-03-12T07:08:04.928Z,80
2017-03-12T07:09:04.695Z,80
2017-03-12T07:10:04.695Z,80
2017-03-12T07:11:04.678Z,85
2017-03-12T07:12:04.627Z,85
2017-03-12T07:13:04.617Z,85
2017-03-12T07:14:04.601Z,85
2017-03-12T07:15:04.627Z,85
2017-03-12T07:16:04.571Z,85
2017-03-12T07:17:04.582Z,85
2017-03-12T07:18:04.156Z,85
2017-03-12T07:19:04.539Z,90
2017-03-12T07:20:04.485Z,90
2017-03-12T07:21:04.492Z,90
2017-03-12T07:22:04.473Z,90
2017-03-12T07:23:04.437Z,90
2017-03-12T07:24:04.436Z,95
2017-03-12T07:25:04.406Z,95
2017-03-12T07:26:04.369Z,95
2017-03-12T07:27:04.343Z,95
2017-03-12T07:28:04.350Z,95
2017-03-12T07:29:04.308Z,100
2017-03-12T07:30:04.304Z,100
2017-03-12T07:31:04.297Z,100
2017-03-12T07:32:04.249Z,100
2017-03-12T07:33:03.843Z,100
2017-03-12T07:34:04.267Z,105
2017-03-12T07:35:03.797Z,110
2017-03-12T07:36:04.247Z,105
2017-03-12T07:37:03.791Z,105
2017-03-12T07:38:04.180Z,105
2017-03-12T07:39:04.133Z,110
2017-03-12T07:40:04.147Z,110
2017-03-12T07:41:04.109Z,110
2017-03-12T07:42:03.678Z,110
2017-03-12T07:43:04.074Z,115
2017-03-12T07:44:04.078Z,115
2017-03-12T07:45:04.007Z,115
2017-03-12T07:46:04.004Z,115
2017-03-12T07:47:03.577Z,115
2017-03-12T07:48:03.979Z,115
2017-03-12T07:49:03.983Z,115
2017-03-12T07:50:03.932Z,115
2017-03-12T07:51:03.919Z,115
2017-03-12T07:52:03.890Z,120
2017-03-12T07:53:03.863Z,120
2017-03-12T07:54:03.468Z,120
2017-03-12T07:55:03.443Z,120
2017-03-12T07:56:03.825Z,125
2017-03-12T07:57:03.395Z,125
2017-03-12T07:58:03.806Z,125
2017-03-12T07:59:03.772Z,130
2017-03-12T08:00:03.761Z,130
2017-03-12T08:01:03.737Z,135
2017-03-12T08:02:03.753Z,135
2017-03-12T08:03:03.695Z,135
2017-03-12T08:04:03.658Z,140
2017-03-12T08:05:03.660Z,140
2017-03-12T08:06:03.713Z,145
2017-03-12T08:07:03.639Z,145
2017-03-12T08:08:03.201Z,150
2017-03-12T08:09:03.585Z,150
2017-03-12T08:10:03.563Z,155
2017-03-12T08:11:03.554Z,155
2017-03-12T08:12:03.524Z,160
2017-03-12T08:13:03.515Z,160
2017-03-12T08:14:03.515Z,160
2017-03-12T08:15:03.095Z,165
2017-03-12T08:16:03.487Z,165
2017-03-12T08:17:03.458Z,165
2017-03-12T08:18:03.462Z,170
2017-03-12T08:19:03.652Z,175
2017-03-12T08:20:03.010Z,175
2017-03-12T08:21:02.960Z,180
2017-03-12T08:22:03.362Z,200
2017-03-12T08:23:03.352Z,365
2017-03-12T08:24:03.317Z,540
2017-03-12T08:25:02.928Z,575
2017-03-12T08:26:03.304Z,590
2017-03-12T08:27:03.303Z,520
2017-03-12T08:28:03.276Z,390
2017-03-12T08:29:03.265Z,280
2017-03-12T08:30:03.241Z,290
2017-03-12T08:31:03.219Z,400
2017-03-12T08:32:03.198Z,555
2017-03-12T08:33:03.200Z,705
2017-03-12T08:34:03.195Z,750
2017-03-12T08:35:03.152Z,740
2017-03-12T08:36:02.757Z,660
2017-03-12T08:37:03.127Z,640
2017-03-12T08:38:03.171Z,670
2017-03-12T08:39:03.111Z,730
2017-03-12T08:40:03.114Z,690
2017-03-12T08:41:02.679Z,675
2017-03-12T08:42:03.075Z,740
2017-03-12T08:43:03.067Z,730
2017-03-12T08:44:03.039Z,710
2017-03-12T08:45:03.048Z,645
2017-03-12T08:46:03.036Z,605
2017-03-12T08:47:03.034Z,570
2017-03-12T08:48:03.005Z,560
2017-03-12T08:49:02.986Z,485
2017-03-12T08:50:02.984Z,445
2017-03-12T08:51:02.991Z,595
2017-03-12T08:52:02.983Z,695
2017-03-12T08:53:02.954Z,695
2017-03-12T08:54:02.992Z,740
2017-03-12T08:55:02.956Z,740
2017-03-12T08:56:02.948Z,700
2017-03-12T08:57:02.910Z,735
2017-03-12T08:58:02.894Z,775
2017-03-12T08:59:02.900Z,800
2017-03-12T09:00:02.513Z,665
2017-03-12T09:01:02.482Z,570
2017-03-12T09:02:02.898Z,545
2017-03-12T09:03:02.896Z,770
2017-03-12T09:04:02.840Z,675
2017-03-12T09:05:02.878Z,705
2017-03-12T09:06:02.840Z,855
2017-03-12T09:07:02.868Z,820
2017-03-12T09:08:03.218Z,740
2017-03-12T09:09:02.435Z,665
2017-03-12T09:10:02.791Z,720
2017-03-12T09:11:02.813Z,605
2017-03-12T09:12:02.789Z,480
2017-03-12T09:13:02.783Z,555
2017-03-12T09:14:02.787Z,735
2017-03-12T09:15:02.769Z,860
2017-03-12T09:16:02.757Z,580
2017-03-12T09:17:02.335Z,320
2017-03-12T09:18:02.785Z,455
2017-03-12T09:19:02.738Z,770
2017-03-12T09:20:02.714Z,730
2017-03-12T09:21:02.729Z,585
2017-03-12T09:22:02.715Z,700
2017-03-12T09:23:02.713Z,515
2017-03-12T09:24:02.933Z,620
2017-03-12T09:25:02.676Z,750
2017-03-12T09:26:02.685Z,680
2017-03-12T09:27:02.665Z,455
2017-03-12T09:28:02.256Z,320
2017-03-12T09:29:02.646Z,410
2017-03-12T09:30:02.266Z,800
2017-03-12T09:31:02.629Z,990
2017-03-12T09:32:02.636Z,895
2017-03-12T09:33:02.217Z,815
2017-03-12T09:34:02.617Z,695
2017-03-12T09:35:02.596Z,605
2017-03-12T09:36:02.615Z,565
2017-03-12T09:37:02.588Z,445
2017-03-12T09:38:02.582Z,320
2017-03-12T09:39:02.561Z,300
2017-03-12T09:40:02.222Z,300
2017-03-12T09:41:02.162Z,310
2017-03-12T09:42:02.562Z,360
2017-03-12T09:43:01.762Z,495
2017-03-12T09:44:02.705Z,615
2017-03-12T09:45:02.530Z,580
2017-03-12T09:46:02.520Z,610
2017-03-12T09:47:02.536Z,530
2017-03-12T09:48:02.523Z,500
2017-03-12T09:49:02.803Z,600
2017-03-12T09:50:02.487Z,555
2017-03-12T09:51:02.115Z,645
2017-03-12T09:52:02.476Z,760
2017-03-12T09:53:02.462Z,600
2017-03-12T09:54:02.500Z,590
2017-03-12T09:55:02.462Z,580
2017-03-12T09:56:02.442Z,495
2017-03-12T09:57:02.467Z,330
2017-03-12T09:58:02.040Z,345
2017-03-12T09:59:02.417Z,455
2017-03-12T10:00:02.433Z,710
2017-03-12T10:01:02.005Z,575
2017-03-12T10:02:02.414Z,430
2017-03-12T10:03:02.381Z,545
2017-03-12T10:04:02.390Z,795
2017-03-12T10:05:02.386Z,940
2017-03-12T10:06:02.364Z,865
2017-03-12T10:07:02.352Z,605
2017-03-12T10:08:02.336Z,690
2017-03-12T10:09:02.364Z,970
2017-03-12T10:10:01.954Z,1085
2017-03-12T10:11:02.324Z,900
2017-03-12T10:12:02.338Z,685
2017-03-12T10:13:02.357Z,445
2017-03-12T10:14:02.321Z,570
2017-03-12T10:15:02.309Z,865
2017-03-12T10:16:02.358Z,870
2017-03-12T10:17:02.322Z,580
2017-03-12T10:18:02.295Z,370
2017-03-12T10:19:01.884Z,405
2017-03-12T10:20:02.258Z,590
2017-03-12T10:21:02.264Z,710
2017-03-12T10:22:02.308Z,875
2017-03-12T10:23:02.262Z,780
2017-03-12T10:24:02.260Z,990
2017-03-12T10:25:02.253Z,1065
2017-03-12T10:26:01.831Z,1005
2017-03-12T10:27:02.207Z,635
2017-03-12T10:28:02.252Z,620
2017-03-12T10:29:02.208Z,880
2017-03-12T10:30:02.212Z,910
2017-03-12T10:31:02.198Z,995
2017-03-12T10:32:02.180Z,1095
2017-03-12T10:33:02.190Z,1085
2017-03-12T10:34:01.807Z,1000
2017-03-12T10:35:02.221Z,760
2017-03-12T10:36:02.175Z,660
2017-03-12T10:37:01.837Z,670
2017-03-12T10:38:02.201Z,785
2017-03-12T10:39:02.152Z,755
2017-03-12T10:40:01.737Z,790
2017-03-12T10:41:01.737Z,915
2017-03-12T10:42:02.140Z,1010
2017-03-12T10:43:02.124Z,1120
2017-03-12T10:44:02.242Z,1225
2017-03-12T10:45:02.234Z,980
2017-03-12T10:46:01.728Z,685
2017-03-12T10:47:02.107Z,760
2017-03-12T10:48:02.120Z,810
2017-03-12T10:49:01.696Z,960
2017-03-12T10:50:02.101Z,1070
2017-03-12T10:51:02.079Z,805
2017-03-12T10:52:02.101Z,665
2017-03-12T10:53:02.101Z,765
2017-03-12T10:54:02.111Z,820
2017-03-12T10:55:02.116Z,860
2017-03-12T10:56:02.093Z,1030
2017-03-12T10:57:02.078Z,1225
2017-03-12T10:58:02.062Z,1185
2017-03-12T10:59:02.059Z,1350
2017-03-12T11:00:02.187Z,1320
2017-03-12T11:01:01.701Z,1295
2017-03-12T11:02:02.030Z,1395
2017-03-12T11:03:02.020Z,1420
2017-03-12T11:04:02.022Z,1390
2017-03-12T11:05:02.095Z,1205
2017-03-12T11:06:02.056Z,1225
2017-03-12T11:07:02.077Z,1350
2017-03-12T11:08:02.023Z,1155
2017-03-12T11:09:01.617Z,930
2017-03-12T11:10:01.637Z,945
2017-03-12T11:11:02.021Z,1210
2017-03-12T11:12:01.998Z,1160
2017-03-12T11:13:02.004Z,1145
2017-03-12T11:14:01.594Z,1140
2017-03-12T11:15:02.348Z,1125
2017-03-12T11:16:02.009Z,985
2017-03-12T11:17:01.980Z,620
2017-03-12T11:18:01.994Z,550
2017-03-12T11:19:01.990Z,825
2017-03-12T11:20:01.980Z,955
2017-03-12T11:21:02.021Z,1015
2017-03-12T11:22:01.562Z,1165
2017-03-12T11:23:01.974Z,1085
2017-03-12T11:24:01.566Z,1140
2017-03-12T11:25:01.957Z,1115
2017-03-12T11:26:01.974Z,1050
2017-03-12T11:27:01.967Z,1140
2017-03-12T11:28:01.571Z,1080
2017-03-12T11:29:01.942Z,1245
2017-03-12T11:30:02.016Z,1355
2017-03-12T11:31:01.948Z,1230
2017-03-12T11:32:01.575Z,1190
2017-03-12T11:33:01.940Z,1080
2017-03-12T11:34:01.949Z,1055
2017-03-12T11:35:01.988Z,1305
2017-03-12T11:36:01.546Z,985
2017-03-12T11:37:01.934Z,790
2017-03-12T11:38:01.592Z,940
2017-03-12T11:39:01.956Z,1090
2017-03-12T11:40:01.967Z,1020
2017-03-12T11:41:01.580Z,960
2017-03-12T11:42:01.955Z,900
2017-03-12T11:43:01.953Z,880
2017-03-12T11:44:01.524Z,1045
2017-03-12T11:45:01.935Z,1055
2017-03-12T11:46:01.921Z,965
2017-03-12T11:47:01.531Z,900
2017-03-12T11:48:01.923Z,1145
2017-03-12T11:49:01.911Z,1200
2017-03-12T11:50:01.927Z,1285
2017-03-12T11:51:01.916Z,1365
2017-03-12T11:52:01.913Z,1455
2017-03-12T11:53:01.923Z,1470
2017-03-12T11:54:01.909Z,1475
2017-03-12T11:55:01.934Z,1525
2017-03-12T11:56:01.919Z,1540
2017-03-12T11:57:02.020Z,1530
2017-03-12T11:58:01.923Z,1515
2017-03-12T11:59:01.934Z,1520
2017-03-12T12:00:01.927Z,1500
2017-03-12T12:01:01.507Z,1480
2017-03-12T12:02:01.909Z,1460
2017-03-12T12:03:01.570Z,1500
2017-03-12T12:04:01.898Z,1515
2017-03-12T12:05:01.917Z,1515
2017-03-12T12:06:01.949Z,1515
2017-03-12T12:07:01.912Z,1505
2017-03-12T12:08:01.917Z,1495
2017-03-12T12:09:01.932Z,1500
2017-03-12T12:10:01.909Z,1515
2017-03-12T12:11:01.924Z,1505
2017-03-12T12:12:01.917Z,1455
2017-03-12T12:13:01.920Z,1385
2017-03-12T12:14:01.929Z,1355
2017-03-12T12:15:01.909Z,1350
2017-03-12T12:16:01.913Z,1360
2017-03-12T12:17:01.927Z,1400
2017-03-12T12:18:01.914Z,1405
2017-03-12T12:19:01.915Z,1410
2017-03-12T12:20:02.058Z,1400
2017-03-12T12:21:01.537Z,1385
2017-03-12T12:22:01.991Z,1405
2017-03-12T12:23:01.937Z,1460
2017-03-12T12:24:01.931Z,1470
2017-03-12T12:25:01.966Z,1460
2017-03-12T12:26:01.942Z,1450
2017-03-12T12:27:01.952Z,1470
2017-03-12T12:28:01.926Z,1500
2017-03-12T12:29:01.945Z,1520
2017-03-12T12:30:01.930Z,1455
2017-03-12T12:31:01.951Z,1405
2017-03-12T12:32:01.945Z,1465
2017-03-12T12:33:01.949Z,1530
2017-03-12T12:34:01.950Z,1530
2017-03-12T12:35:02.001Z,1465
2017-03-12T12:36:01.971Z,1415
2017-03-12T12:37:01.956Z,1430
2017-03-12T12:38:02.003Z,1450
2017-03-12T12:39:02.001Z,1505
2017-03-12T12:40:01.597Z,1525
2017-03-12T12:41:01.971Z,1505
2017-03-12T12:42:01.565Z,1460
2017-03-12T12:43:01.975Z,1435
2017-03-12T12:44:01.992Z,1445
2017-03-12T12:45:01.981Z,1430
2017-03-12T12:46:01.982Z,1435
2017-03-12T12:47:01.964Z,1435
2017-03-12T12:48:01.979Z,1435
2017-03-12T12:49:01.572Z,1400
2017-03-12T12:50:01.583Z,1390
2017-03-12T12:51:01.989Z,1405
2017-03-12T12:52:01.591Z,1430
2017-03-12T12:53:01.999Z,1440
2017-03-12T12:54:02.006Z,1450
2017-03-12T12:55:01.995Z,1435
2017-03-12T12:56:02.013Z,1410
2017-03-12T12:57:01.997Z,1405
2017-03-12T12:58:02.008Z,1395
2017-03-12T12:59:02.022Z,1365
2017-03-12T13:00:02.014Z,1285
2017-03-12T13:01:01.628Z,1195
2017-03-12T13:02:02.018Z,1160
2017-03-12T13:03:02.023Z,1220
2017-03-12T13:04:01.231Z,1340
2017-03-12T13:05:01.648Z,1415
2017-03-12T13:06:01.640Z,1435
2017-03-12T13:07:02.076Z,1415
2017-03-12T13:08:02.046Z,1445
2017-03-12T13:09:02.020Z,1455
2017-03-12T13:10:02.041Z,1460
2017-03-12T13:11:01.669Z,1425
2017-03-12T13:12:01.784Z,1400
2017-03-12T13:13:01.641Z,1405
2017-03-12T13:14:02.052Z,1410
2017-03-12T13:15:02.058Z,1400
2017-03-12T13:16:02.085Z,1390
2017-03-12T13:17:02.043Z,1385
2017-03-12T13:18:01.654Z,1385
2017-03-12T13:19:01.643Z,1390
2017-03-12T13:20:01.685Z,1395
2017-03-12T13:21:02.073Z,1405
2017-03-12T13:22:01.655Z,1410
2017-03-12T13:23:01.664Z,1395
2017-03-12T13:24:01.678Z,1385
2017-03-12T13:25:02.076Z,1380
2017-03-12T13:26:02.070Z,1365
2017-03-12T13:27:02.184Z,1345
2017-03-12T13:28:02.078Z,1350
2017-03-12T13:29:01.681Z,1330
2017-03-12T13:30:01.692Z,1350
2017-03-12T13:31:02.094Z,1300
2017-03-12T13:32:02.092Z,1240
2017-03-12T13:33:01.684Z,1235
2017-03-12T13:34:02.090Z,1265
2017-03-12T13:35:01.675Z,1280
2017-03-12T13:36:01.694Z,1245
2017-03-12T13:37:01.687Z,1225
2017-03-12T13:38:01.682Z,1245
2017-03-12T13:39:01.687Z,1265
2017-03-12T13:40:02.110Z,1260
2017-03-12T13:41:01.741Z,1225
2017-03-12T13:42:02.105Z,1220
2017-03-12T13:43:02.117Z,1220
2017-03-12T13:44:02.109Z,1250
2017-03-12T13:45:02.105Z,1240
2017-03-12T13:46:01.703Z,1225
2017-03-12T13:47:02.097Z,1220
2017-03-12T13:48:02.148Z,1190
2017-03-12T13:49:02.100Z,1155
2017-03-12T13:50:02.123Z,1125
2017-03-12T13:51:02.121Z,1105
2017-03-12T13:52:01.701Z,1085
2017-03-12T13:53:02.106Z,1065
2017-03-12T13:54:02.121Z,1040
2017-03-12T13:55:02.128Z,1025
2017-03-12T13:56:02.107Z,1035
2017-03-12T13:57:02.110Z,1040
2017-03-12T13:58:02.120Z,1050
2017-03-12T13:59:02.116Z,1050
2017-03-12T14:00:02.141Z,1045
2017-03-12T14:01:02.126Z,1060
2017-03-12T14:02:02.126Z,1055
2017-03-12T14:03:02.116Z,1020
2017-03-12T14:04:02.126Z,1025
2017-03-12T14:05:02.127Z,1025
2017-03-12T14:06:01.721Z,1015
2017-03-12T14:07:02.146Z,1020